sensor_id;sensor_type;location;lat;lon;timestamp;P1;durP1;ratioP1;P2;durP2;ratioP2
32866;SDS011;19220;55.816;37.808;2023-04-28T03:31:59;12.60;;;9.20;;
32866;SDS011;19220;55.816;37.808;2023-04-28T03:34:26;17.15;;;8.60;;
32866;SDS011;19220;55.816;37.808;2023-04-28T03:36:52;11.60;;;8.80;;
32866;SDS011;19220;55.816;37.808;2023-04-28T03:39:24;13.45;;;8.88;;
32866;SDS011;19220;55.816;37.808;2023-04-28T03:41:50;13.45;;;8.98;;
32866;SDS011;19220;55.816;37.808;2023-04-28T03:44:34;15.55;;;8.02;;
32866;SDS011;19220;55.816;37.808;2023-04-28T03:47:16;13.27;;;8.27;;
32866;SDS011;19220;55.816;37.808;2023-04-28T03:49:42;13.50;;;8.48;;
32866;SDS011;19220;55.816;37.808;2023-04-28T03:52:08;11.93;;;7.82;;
32866;SDS011;19220;55.816;37.808;2023-04-28T03:54:33;17.52;;;7.80;;
32866;SDS011;19220;55.816;37.808;2023-04-28T03:56:59;12.70;;;7.80;;
32866;SDS011;19220;55.816;37.808;2023-04-28T03:59:26;10.95;;;7.22;;
32866;SDS011;19220;55.816;37.808;2023-04-28T04:01:52;12.13;;;7.03;;
32866;SDS011;19220;55.816;37.808;2023-04-28T04:04:17;12.55;;;8.05;;
32866;SDS011;19220;55.816;37.808;2023-04-28T04:06:43;17.40;;;7.32;;
32866;SDS011;19220;55.816;37.808;2023-04-28T04:09:10;7.57;;;6.60;;
32866;SDS011;19220;55.816;37.808;2023-04-28T04:11:36;14.00;;;8.55;;
32866;SDS011;19220;55.816;37.808;2023-04-28T04:14:02;9.07;;;6.95;;
32866;SDS011;19220;55.816;37.808;2023-04-28T05:17:15;12.88;;;7.20;;
32866;SDS011;19220;55.816;37.808;2023-04-28T05:19:42;8.48;;;5.82;;
32866;SDS011;19220;55.816;37.808;2023-04-28T05:22:07;6.93;;;5.70;;
32866;SDS011;19220;55.816;37.808;2023-04-28T05:24:35;11.13;;;5.97;;
32866;SDS011;19220;55.816;37.808;2023-04-28T05:27:01;10.75;;;6.00;;
32866;SDS011;19220;55.816;37.808;2023-04-28T05:29:27;10.32;;;5.25;;
32866;SDS011;19220;55.816;37.808;2023-04-28T05:31:53;10.57;;;5.85;;
32866;SDS011;19220;55.816;37.808;2023-04-28T05:34:21;9.80;;;6.22;;
32866;SDS011;19220;55.816;37.808;2023-04-28T05:36:46;8.02;;;5.32;;
32866;SDS011;19220;55.816;37.808;2023-04-28T05:39:12;9.38;;;5.65;;
32866;SDS011;19220;55.816;37.808;2023-04-28T05:41:39;12.15;;;5.85;;
32866;SDS011;19220;55.816;37.808;2023-04-28T05:44:05;8.10;;;5.70;;
32866;SDS011;19220;55.816;37.808;2023-04-28T05:46:31;8.25;;;5.88;;
32866;SDS011;19220;55.816;37.808;2023-04-28T05:48:59;10.10;;;5.90;;
32866;SDS011;19220;55.816;37.808;2023-04-28T05:51:30;8.32;;;5.60;;
32866;SDS011;19220;55.816;37.808;2023-04-28T05:53:56;10.15;;;5.88;;
32866;SDS011;19220;55.816;37.808;2023-04-28T05:56:24;10.07;;;6.10;;
32866;SDS011;19220;55.816;37.808;2023-04-28T05:58:49;9.20;;;5.78;;
32866;SDS011;19220;55.816;37.808;2023-04-28T06:01:16;11.93;;;6.18;;
32866;SDS011;19220;55.816;37.808;2023-04-28T06:03:42;13.15;;;6.00;;
32866;SDS011;19220;55.816;37.808;2023-04-28T06:06:08;12.40;;;6.97;;
32866;SDS011;19220;55.816;37.808;2023-04-28T06:08:34;9.57;;;5.45;;
32866;SDS011;19220;55.816;37.808;2023-04-28T06:11:02;8.30;;;5.35;;
32866;SDS011;19220;55.816;37.808;2023-04-28T06:13:28;8.35;;;5.22;;
32866;SDS011;19220;55.816;37.808;2023-04-28T06:15:53;7.75;;;4.90;;
32866;SDS011;19220;55.816;37.808;2023-04-28T06:18:19;6.75;;;4.88;;
32866;SDS011;19220;55.816;37.808;2023-04-28T06:20:45;11.00;;;5.20;;
32866;SDS011;19220;55.816;37.808;2023-04-28T06:23:11;7.50;;;4.35;;
32866;SDS011;19220;55.816;37.808;2023-04-28T06:25:42;5.80;;;4.10;;
32866;SDS011;19220;55.816;37.808;2023-04-28T06:28:08;9.88;;;4.70;;
32866;SDS011;19220;55.816;37.808;2023-04-28T06:30:33;6.00;;;3.65;;
32866;SDS011;19220;55.816;37.808;2023-04-28T06:33:02;6.90;;;3.80;;
32866;SDS011;19220;55.816;37.808;2023-04-28T06:35:27;8.48;;;3.90;;
32866;SDS011;19220;55.816;37.808;2023-04-28T06:37:53;7.05;;;3.58;;
32866;SDS011;19220;55.816;37.808;2023-04-28T06:40:19;9.15;;;3.70;;
32866;SDS011;19220;55.816;37.808;2023-04-28T06:42:50;5.95;;;3.38;;
32866;SDS011;19220;55.816;37.808;2023-04-28T06:45:22;18.83;;;4.10;;
32866;SDS011;19220;55.816;37.808;2023-04-28T06:47:48;5.90;;;3.50;;
32866;SDS011;19220;55.816;37.808;2023-04-28T06:50:14;7.43;;;3.55;;
32866;SDS011;19220;55.816;37.808;2023-04-28T06:52:40;11.35;;;4.10;;
32866;SDS011;19220;55.816;37.808;2023-04-28T06:55:06;4.32;;;3.78;;
32866;SDS011;19220;55.816;37.808;2023-04-28T06:57:33;11.43;;;3.28;;
32866;SDS011;19220;55.816;37.808;2023-04-28T06:59:59;5.68;;;3.10;;
32866;SDS011;19220;55.816;37.808;2023-04-28T07:02:25;8.38;;;3.25;;
32866;SDS011;19220;55.816;37.808;2023-04-28T07:04:51;5.53;;;3.05;;
32866;SDS011;19220;55.816;37.808;2023-04-28T07:07:17;3.38;;;2.70;;
32866;SDS011;19220;55.816;37.808;2023-04-28T07:09:42;5.60;;;3.13;;
32866;SDS011;19220;55.816;37.808;2023-04-28T07:12:08;7.20;;;2.90;;
32866;SDS011;19220;55.816;37.808;2023-04-28T07:14:34;4.43;;;3.10;;
32866;SDS011;19220;55.816;37.808;2023-04-28T07:17:00;8.82;;;2.90;;
32866;SDS011;19220;55.816;37.808;2023-04-28T07:19:25;6.75;;;3.55;;
32866;SDS011;19220;55.816;37.808;2023-04-28T07:21:51;6.53;;;3.60;;
32866;SDS011;19220;55.816;37.808;2023-04-28T07:24:17;9.27;;;4.65;;
32866;SDS011;19220;55.816;37.808;2023-04-28T07:26:42;10.27;;;4.68;;
32866;SDS011;19220;55.816;37.808;2023-04-28T07:29:08;6.90;;;3.88;;
32866;SDS011;19220;55.816;37.808;2023-04-28T07:31:34;4.82;;;3.70;;
32866;SDS011;19220;55.816;37.808;2023-04-28T07:34:00;9.30;;;4.60;;
32866;SDS011;19220;55.816;37.808;2023-04-28T07:36:26;6.10;;;4.18;;
32866;SDS011;19220;55.816;37.808;2023-04-28T07:38:51;5.45;;;3.60;;
32866;SDS011;19220;55.816;37.808;2023-04-28T07:41:17;5.35;;;3.33;;
32866;SDS011;19220;55.816;37.808;2023-04-28T07:43:43;4.25;;;3.35;;
32866;SDS011;19220;55.816;37.808;2023-04-28T07:46:09;3.67;;;3.17;;
32866;SDS011;19220;55.816;37.808;2023-04-28T07:48:36;7.45;;;3.15;;
32866;SDS011;19220;55.816;37.808;2023-04-28T07:51:02;4.13;;;3.20;;
32866;SDS011;19220;55.816;37.808;2023-04-28T07:53:28;4.78;;;3.30;;
32866;SDS011;19220;55.816;37.808;2023-04-28T07:55:53;4.03;;;3.22;;
32866;SDS011;19220;55.816;37.808;2023-04-28T07:58:19;4.80;;;3.88;;
32866;SDS011;19220;55.816;37.808;2023-04-28T08:00:45;4.78;;;4.00;;
32866;SDS011;19220;55.816;37.808;2023-04-28T08:03:10;5.38;;;3.55;;
32866;SDS011;19220;55.816;37.808;2023-04-28T08:05:39;4.90;;;3.50;;
32866;SDS011;19220;55.816;37.808;2023-04-28T08:08:05;7.65;;;3.88;;
32866;SDS011;19220;55.816;37.808;2023-04-28T08:10:31;3.88;;;3.50;;
32866;SDS011;19220;55.816;37.808;2023-04-28T08:12:59;7.30;;;3.40;;
32866;SDS011;19220;55.816;37.808;2023-04-28T08:15:27;4.47;;;3.80;;
32866;SDS011;19220;55.816;37.808;2023-04-28T08:17:53;5.18;;;4.00;;
32866;SDS011;19220;55.816;37.808;2023-04-28T08:20:19;7.07;;;4.10;;
32866;SDS011;19220;55.816;37.808;2023-04-28T08:22:45;6.10;;;3.97;;
32866;SDS011;19220;55.816;37.808;2023-04-28T08:25:11;4.50;;;3.85;;
32866;SDS011;19220;55.816;37.808;2023-04-28T08:27:37;5.40;;;3.85;;
32866;SDS011;19220;55.816;37.808;2023-04-28T08:30:07;5.50;;;3.95;;
32866;SDS011;19220;55.816;37.808;2023-04-28T08:32:34;4.28;;;3.53;;
32866;SDS011;19220;55.816;37.808;2023-04-28T08:35:06;3.83;;;3.47;;
32866;SDS011;19220;55.816;37.808;2023-04-28T08:37:32;5.47;;;3.28;;
32866;SDS011;19220;55.816;37.808;2023-04-28T08:39:57;4.80;;;3.35;;
32866;SDS011;19220;55.816;37.808;2023-04-28T08:42:29;3.50;;;3.20;;
32866;SDS011;19220;55.816;37.808;2023-04-28T08:45:04;3.92;;;3.30;;
32866;SDS011;19220;55.816;37.808;2023-04-28T08:47:35;4.68;;;3.50;;
32866;SDS011;19220;55.816;37.808;2023-04-28T08:50:01;5.30;;;3.28;;
32866;SDS011;19220;55.816;37.808;2023-04-28T08:52:29;3.45;;;3.17;;
32866;SDS011;19220;55.816;37.808;2023-04-28T08:54:57;3.75;;;2.97;;
32866;SDS011;19220;55.816;37.808;2023-04-28T08:57:26;5.20;;;3.30;;
32866;SDS011;19220;55.816;37.808;2023-04-28T08:59:52;6.47;;;3.10;;
32866;SDS011;19220;55.816;37.808;2023-04-28T09:02:18;5.20;;;3.40;;
32866;SDS011;19220;55.816;37.808;2023-04-28T09:04:45;5.75;;;3.30;;
32866;SDS011;19220;55.816;37.808;2023-04-28T09:07:11;5.35;;;3.30;;
32866;SDS011;19220;55.816;37.808;2023-04-28T09:09:37;4.28;;;3.00;;
32866;SDS011;19220;55.816;37.808;2023-04-28T09:12:02;3.72;;;3.10;;
32866;SDS011;19220;55.816;37.808;2023-04-28T09:14:32;6.47;;;3.55;;
32866;SDS011;19220;55.816;37.808;2023-04-28T09:16:59;5.68;;;3.50;;
32866;SDS011;19220;55.816;37.808;2023-04-28T09:19:37;4.45;;;3.63;;
32866;SDS011;19220;55.816;37.808;2023-04-28T09:22:07;5.72;;;3.75;;
32866;SDS011;19220;55.816;37.808;2023-04-28T09:24:36;6.20;;;3.78;;
32866;SDS011;19220;55.816;37.808;2023-04-28T09:27:06;5.13;;;3.03;;
32866;SDS011;19220;55.816;37.808;2023-04-28T09:29:35;4.25;;;3.30;;
32866;SDS011;19220;55.816;37.808;2023-04-28T09:32:17;6.00;;;4.10;;
32866;SDS011;19220;55.816;37.808;2023-04-28T09:34:44;6.05;;;4.00;;
32866;SDS011;19220;55.816;37.808;2023-04-28T09:37:13;6.00;;;4.45;;
32866;SDS011;19220;55.816;37.808;2023-04-28T09:39:39;5.47;;;4.43;;
32866;SDS011;19220;55.816;37.808;2023-04-28T09:42:05;6.25;;;4.75;;
32866;SDS011;19220;55.816;37.808;2023-04-28T09:44:30;8.00;;;5.18;;
32866;SDS011;19220;55.816;37.808;2023-04-28T09:46:56;7.60;;;4.70;;
32866;SDS011;19220;55.816;37.808;2023-04-28T09:49:22;9.32;;;5.15;;
32866;SDS011;19220;55.816;37.808;2023-04-28T09:51:48;5.68;;;4.40;;
32866;SDS011;19220;55.816;37.808;2023-04-28T09:54:14;6.97;;;4.82;;
32866;SDS011;19220;55.816;37.808;2023-04-28T09:56:40;7.53;;;4.82;;
32866;SDS011;19220;55.816;37.808;2023-04-28T09:59:08;7.20;;;5.43;;
32866;SDS011;19220;55.816;37.808;2023-04-28T10:01:37;7.18;;;5.85;;
32866;SDS011;19220;55.816;37.808;2023-04-28T10:04:05;6.22;;;5.35;;
32866;SDS011;19220;55.816;37.808;2023-04-28T10:06:34;7.18;;;6.13;;
32866;SDS011;19220;55.816;37.808;2023-04-28T10:09:03;7.60;;;5.95;;
32866;SDS011;19220;55.816;37.808;2023-04-28T10:11:29;8.95;;;6.88;;
32866;SDS011;19220;55.816;37.808;2023-04-28T10:13:55;6.93;;;6.03;;
32866;SDS011;19220;55.816;37.808;2023-04-28T10:16:21;10.35;;;7.68;;
32866;SDS011;19220;55.816;37.808;2023-04-28T10:18:48;12.05;;;8.10;;
32866;SDS011;19220;55.816;37.808;2023-04-28T10:21:15;7.93;;;6.60;;
32866;SDS011;19220;55.816;37.808;2023-04-28T10:23:46;8.13;;;6.50;;
32866;SDS011;19220;55.816;37.808;2023-04-28T10:26:16;6.53;;;5.88;;
32866;SDS011;19220;55.816;37.808;2023-04-28T10:28:52;7.68;;;6.22;;
32866;SDS011;19220;55.816;37.808;2023-04-28T10:31:23;7.53;;;6.05;;
32866;SDS011;19220;55.816;37.808;2023-04-28T10:33:52;8.10;;;6.22;;
32866;SDS011;19220;55.816;37.808;2023-04-28T10:39:07;7.85;;;5.90;;
32866;SDS011;19220;55.816;37.808;2023-04-28T10:41:34;10.98;;;5.68;;
32866;SDS011;19220;55.816;37.808;2023-04-28T10:43:59;7.35;;;6.07;;
32866;SDS011;19220;55.816;37.808;2023-04-28T10:46:25;8.05;;;5.97;;
32866;SDS011;19220;55.816;37.808;2023-04-28T10:48:51;7.80;;;5.97;;
32866;SDS011;19220;55.816;37.808;2023-04-28T10:56:16;8.45;;;6.28;;
32866;SDS011;19220;55.816;37.808;2023-04-28T10:58:59;9.43;;;6.28;;
32866;SDS011;19220;55.816;37.808;2023-04-28T11:03:54;8.15;;;6.30;;
32866;SDS011;19220;55.816;37.808;2023-04-28T11:06:44;7.55;;;5.93;;
32866;SDS011;19220;55.816;37.808;2023-04-28T11:17:05;8.30;;;6.43;;
32866;SDS011;19220;55.816;37.808;2023-04-28T11:19:32;7.13;;;6.43;;
32866;SDS011;19220;55.816;37.808;2023-04-28T11:22:00;9.98;;;6.00;;
32866;SDS011;19220;55.816;37.808;2023-04-28T11:24:30;7.65;;;6.40;;
32866;SDS011;19220;55.816;37.808;2023-04-28T11:26:56;7.60;;;6.22;;
32866;SDS011;19220;55.816;37.808;2023-04-28T11:29:32;9.50;;;6.82;;
32866;SDS011;19220;55.816;37.808;2023-04-28T11:31:58;8.05;;;6.60;;
32866;SDS011;19220;55.816;37.808;2023-04-28T11:34:24;8.25;;;6.28;;
32866;SDS011;19220;55.816;37.808;2023-04-28T11:36:49;8.70;;;6.00;;
32866;SDS011;19220;55.816;37.808;2023-04-28T11:39:15;9.35;;;6.20;;
32866;SDS011;19220;55.816;37.808;2023-04-28T11:41:42;9.10;;;5.93;;
32866;SDS011;19220;55.816;37.808;2023-04-28T11:44:11;7.53;;;6.78;;
32866;SDS011;19220;55.816;37.808;2023-04-28T11:46:44;15.15;;;7.93;;
32866;SDS011;19220;55.816;37.808;2023-04-28T11:49:11;7.55;;;6.72;;
32866;SDS011;19220;55.816;37.808;2023-04-28T11:51:37;8.30;;;7.07;;
32866;SDS011;19220;55.816;37.808;2023-04-28T11:54:04;11.27;;;7.97;;
32866;SDS011;19220;55.816;37.808;2023-04-28T11:56:35;11.45;;;8.05;;
32866;SDS011;19220;55.816;37.808;2023-04-28T11:59:05;15.20;;;9.52;;
32866;SDS011;19220;55.816;37.808;2023-04-28T12:01:49;19.08;;;10.85;;
32866;SDS011;19220;55.816;37.808;2023-04-28T12:04:32;20.33;;;13.20;;
32866;SDS011;19220;55.816;37.808;2023-04-28T12:07:10;21.27;;;11.07;;
32866;SDS011;19220;55.816;37.808;2023-04-28T12:09:39;16.92;;;13.27;;
32866;SDS011;19220;55.816;37.808;2023-04-28T12:12:05;21.95;;;14.27;;
32866;SDS011;19220;55.816;37.808;2023-04-28T12:14:32;23.20;;;15.88;;
32866;SDS011;19220;55.816;37.808;2023-04-28T12:17:00;20.50;;;15.85;;
32866;SDS011;19220;55.816;37.808;2023-04-28T12:19:26;18.67;;;14.50;;
32866;SDS011;19220;55.816;37.808;2023-04-28T12:21:58;19.73;;;14.85;;
32866;SDS011;19220;55.816;37.808;2023-04-28T12:24:25;16.90;;;15.05;;
32866;SDS011;19220;55.816;37.808;2023-04-28T12:26:51;16.90;;;15.07;;
32866;SDS011;19220;55.816;37.808;2023-04-28T12:32:16;21.02;;;15.05;;
32866;SDS011;19220;55.816;37.808;2023-04-28T12:34:43;21.75;;;16.67;;
32866;SDS011;19220;55.816;37.808;2023-04-28T12:37:09;17.63;;;15.43;;
32866;SDS011;19220;55.816;37.808;2023-04-28T12:39:38;15.02;;;12.70;;
32866;SDS011;19220;55.816;37.808;2023-04-28T12:42:04;20.35;;;15.30;;
32866;SDS011;19220;55.816;37.808;2023-04-28T12:44:34;22.30;;;16.30;;
32866;SDS011;19220;55.816;37.808;2023-04-28T12:47:01;15.55;;;13.95;;
32866;SDS011;19220;55.816;37.808;2023-04-28T12:49:27;15.52;;;13.25;;
32866;SDS011;19220;55.816;37.808;2023-04-28T12:51:52;18.50;;;13.35;;
32866;SDS011;19220;55.816;37.808;2023-04-28T12:54:18;16.98;;;14.07;;
32866;SDS011;19220;55.816;37.808;2023-04-28T12:56:44;16.65;;;13.23;;
32866;SDS011;19220;55.816;37.808;2023-04-28T12:59:09;23.20;;;13.85;;
32866;SDS011;19220;55.816;37.808;2023-04-28T13:01:35;16.67;;;12.77;;
32866;SDS011;19220;55.816;37.808;2023-04-28T13:04:01;15.60;;;13.50;;
32866;SDS011;19220;55.816;37.808;2023-04-28T13:06:27;16.40;;;13.45;;
32866;SDS011;19220;55.816;37.808;2023-04-28T13:08:53;15.07;;;13.48;;
32866;SDS011;19220;55.816;37.808;2023-04-28T13:11:19;15.25;;;13.32;;
32866;SDS011;19220;55.816;37.808;2023-04-28T13:13:45;18.00;;;14.23;;
32866;SDS011;19220;55.816;37.808;2023-04-28T13:16:11;23.05;;;15.60;;
32866;SDS011;19220;55.816;37.808;2023-04-28T13:18:38;19.88;;;15.63;;
32866;SDS011;19220;55.816;37.808;2023-04-28T13:21:04;16.88;;;15.18;;
32866;SDS011;19220;55.816;37.808;2023-04-28T13:23:30;15.60;;;13.20;;
32866;SDS011;19220;55.816;37.808;2023-04-28T13:25:55;18.35;;;14.55;;
32866;SDS011;19220;55.816;37.808;2023-04-28T13:28:21;13.55;;;12.07;;
32866;SDS011;19220;55.816;37.808;2023-04-28T13:30:47;13.40;;;12.00;;
32866;SDS011;19220;55.816;37.808;2023-04-28T13:33:12;27.63;;;12.32;;
32866;SDS011;19220;55.816;37.808;2023-04-28T13:35:38;15.25;;;11.32;;
32866;SDS011;19220;55.816;37.808;2023-04-28T13:38:04;12.55;;;11.23;;
32866;SDS011;19220;55.816;37.808;2023-04-28T13:40:30;11.43;;;9.68;;
32866;SDS011;19220;55.816;37.808;2023-04-28T13:42:56;18.80;;;9.80;;
32866;SDS011;19220;55.816;37.808;2023-04-28T13:45:22;14.75;;;9.70;;
32866;SDS011;19220;55.816;37.808;2023-04-28T13:47:47;11.07;;;9.13;;
32866;SDS011;19220;55.816;37.808;2023-04-28T13:50:13;9.27;;;8.35;;
32866;SDS011;19220;55.816;37.808;2023-04-28T13:52:39;13.68;;;9.57;;
32866;SDS011;19220;55.816;37.808;2023-04-28T13:55:05;14.90;;;9.93;;
32866;SDS011;19220;55.816;37.808;2023-04-28T13:57:31;9.77;;;8.77;;
32866;SDS011;19220;55.816;37.808;2023-04-28T14:00:05;11.25;;;7.82;;
32866;SDS011;19220;55.816;37.808;2023-04-28T14:02:35;9.55;;;7.82;;
32866;SDS011;19220;55.816;37.808;2023-04-28T14:05:01;7.78;;;7.03;;
32866;SDS011;19220;55.816;37.808;2023-04-28T14:07:29;8.27;;;6.93;;
32866;SDS011;19220;55.816;37.808;2023-04-28T14:09:55;7.60;;;6.45;;
32866;SDS011;19220;55.816;37.808;2023-04-28T14:12:21;8.13;;;6.43;;
32866;SDS011;19220;55.816;37.808;2023-04-28T14:14:46;6.30;;;5.80;;
32866;SDS011;19220;55.816;37.808;2023-04-28T14:17:13;6.18;;;5.57;;
32866;SDS011;19220;55.816;37.808;2023-04-28T14:19:39;5.53;;;5.03;;
32866;SDS011;19220;55.816;37.808;2023-04-28T14:22:04;7.05;;;5.00;;
32866;SDS011;19220;55.816;37.808;2023-04-28T14:24:31;5.15;;;4.70;;
32866;SDS011;19220;55.816;37.808;2023-04-28T14:26:57;7.00;;;5.00;;
32866;SDS011;19220;55.816;37.808;2023-04-28T14:29:22;6.18;;;4.70;;
32866;SDS011;19220;55.816;37.808;2023-04-28T14:31:48;4.68;;;4.28;;
32866;SDS011;19220;55.816;37.808;2023-04-28T14:34:13;5.75;;;4.55;;
32866;SDS011;19220;55.816;37.808;2023-04-28T14:36:39;5.97;;;4.03;;
32866;SDS011;19220;55.816;37.808;2023-04-28T14:39:06;5.43;;;4.28;;
32866;SDS011;19220;55.816;37.808;2023-04-28T14:41:32;11.60;;;9.30;;
32866;SDS011;19220;55.816;37.808;2023-04-28T14:43:58;4.30;;;3.90;;
32866;SDS011;19220;55.816;37.808;2023-04-28T14:46:23;4.20;;;3.70;;
32866;SDS011;19220;55.816;37.808;2023-04-28T14:48:49;5.18;;;3.92;;
32866;SDS011;19220;55.816;37.808;2023-04-28T14:51:15;4.90;;;3.80;;
32866;SDS011;19220;55.816;37.808;2023-04-28T14:53:41;6.32;;;4.10;;
32866;SDS011;19220;55.816;37.808;2023-04-28T14:56:07;4.93;;;4.13;;
32866;SDS011;19220;55.816;37.808;2023-04-28T14:58:33;6.28;;;4.15;;
32866;SDS011;19220;55.816;37.808;2023-04-28T15:00:59;4.00;;;3.60;;
32866;SDS011;19220;55.816;37.808;2023-04-28T15:03:25;4.32;;;3.55;;
32866;SDS011;19220;55.816;37.808;2023-04-28T15:05:51;4.03;;;3.65;;
32866;SDS011;19220;55.816;37.808;2023-04-28T15:08:17;5.85;;;3.92;;
32866;SDS011;19220;55.816;37.808;2023-04-28T15:10:43;4.18;;;3.60;;
32866;SDS011;19220;55.816;37.808;2023-04-28T15:13:09;6.50;;;4.10;;
32866;SDS011;19220;55.816;37.808;2023-04-28T15:15:35;4.90;;;3.20;;
32866;SDS011;19220;55.816;37.808;2023-04-28T15:18:01;4.25;;;3.67;;
32866;SDS011;19220;55.816;37.808;2023-04-28T15:20:28;4.20;;;2.90;;
32866;SDS011;19220;55.816;37.808;2023-04-28T15:22:55;5.57;;;3.13;;
32866;SDS011;19220;55.816;37.808;2023-04-28T15:25:20;5.15;;;3.45;;
32866;SDS011;19220;55.816;37.808;2023-04-28T15:27:46;3.30;;;3.00;;
32866;SDS011;19220;55.816;37.808;2023-04-28T15:30:14;4.22;;;3.30;;
32866;SDS011;19220;55.816;37.808;2023-04-28T15:32:40;3.50;;;3.20;;
32866;SDS011;19220;55.816;37.808;2023-04-28T15:35:07;5.60;;;2.88;;
32866;SDS011;19220;55.816;37.808;2023-04-28T15:40:01;4.65;;;2.28;;
32866;SDS011;19220;55.816;37.808;2023-04-28T15:42:29;6.53;;;2.58;;
32866;SDS011;19220;55.816;37.808;2023-04-28T15:44:55;2.45;;;2.17;;
32866;SDS011;19220;55.816;37.808;2023-04-28T15:47:21;5.53;;;2.88;;
32866;SDS011;19220;55.816;37.808;2023-04-28T15:49:46;3.00;;;2.47;;
32866;SDS011;19220;55.816;37.808;2023-04-28T15:52:12;2.45;;;2.15;;
32866;SDS011;19220;55.816;37.808;2023-04-28T15:54:38;4.07;;;2.22;;
32866;SDS011;19220;55.816;37.808;2023-04-28T15:57:04;3.53;;;1.95;;
32866;SDS011;19220;55.816;37.808;2023-04-28T15:59:32;3.30;;;1.80;;
32866;SDS011;19220;55.816;37.808;2023-04-28T16:01:59;1.88;;;1.63;;
32866;SDS011;19220;55.816;37.808;2023-04-28T16:04:27;2.85;;;2.00;;
32866;SDS011;19220;55.816;37.808;2023-04-28T16:06:53;2.58;;;1.48;;
32866;SDS011;19220;55.816;37.808;2023-04-28T16:09:19;2.25;;;2.05;;
32866;SDS011;19220;55.816;37.808;2023-04-28T16:11:45;1.55;;;1.20;;
32866;SDS011;19220;55.816;37.808;2023-04-28T16:14:11;3.15;;;1.20;;
32866;SDS011;19220;55.816;37.808;2023-04-28T16:16:37;1.75;;;1.50;;
32866;SDS011;19220;55.816;37.808;2023-04-28T16:19:05;1.50;;;1.40;;
32866;SDS011;19220;55.816;37.808;2023-04-28T16:21:31;13.95;;;10.90;;
32866;SDS011;19220;55.816;37.808;2023-04-28T16:23:57;2.38;;;1.50;;
32866;SDS011;19220;55.816;37.808;2023-04-28T16:26:23;2.55;;;2.10;;
32866;SDS011;19220;55.816;37.808;2023-04-28T16:28:48;1.92;;;1.50;;
32866;SDS011;19220;55.816;37.808;2023-04-28T16:31:14;1.80;;;1.38;;
32866;SDS011;19220;55.816;37.808;2023-04-28T16:33:40;1.65;;;1.27;;
32866;SDS011;19220;55.816;37.808;2023-04-28T16:36:07;3.13;;;1.38;;
32866;SDS011;19220;55.816;37.808;2023-04-28T16:38:33;1.80;;;1.40;;
32866;SDS011;19220;55.816;37.808;2023-04-28T16:40:58;2.83;;;1.55;;
32866;SDS011;19220;55.816;37.808;2023-04-28T16:43:24;1.70;;;1.60;;
32866;SDS011;19220;55.816;37.808;2023-04-28T16:45:50;1.67;;;1.30;;
32866;SDS011;19220;55.816;37.808;2023-04-28T16:48:15;2.97;;;1.60;;
32866;SDS011;19220;55.816;37.808;2023-04-28T16:50:45;2.83;;;1.65;;
32866;SDS011;19220;55.816;37.808;2023-04-28T16:53:11;2.60;;;1.70;;
32866;SDS011;19220;55.816;37.808;2023-04-28T16:55:37;1.73;;;1.50;;
32866;SDS011;19220;55.816;37.808;2023-04-28T16:58:03;2.15;;;1.95;;
32866;SDS011;19220;55.816;37.808;2023-04-28T17:00:28;3.03;;;1.60;;
32866;SDS011;19220;55.816;37.808;2023-04-28T17:02:55;2.03;;;1.50;;
32866;SDS011;19220;55.816;37.808;2023-04-28T17:05:21;2.38;;;1.70;;
32866;SDS011;19220;55.816;37.808;2023-04-28T17:07:46;1.70;;;1.60;;
32866;SDS011;19220;55.816;37.808;2023-04-28T17:10:12;2.10;;;1.70;;
32866;SDS011;19220;55.816;37.808;2023-04-28T17:12:40;2.00;;;1.50;;
32866;SDS011;19220;55.816;37.808;2023-04-28T17:15:07;1.58;;;1.48;;
32866;SDS011;19220;55.816;37.808;2023-04-28T17:17:34;2.00;;;1.70;;
32866;SDS011;19220;55.816;37.808;2023-04-28T17:20:00;2.40;;;1.90;;
32866;SDS011;19220;55.816;37.808;2023-04-28T17:22:27;2.33;;;2.08;;
32866;SDS011;19220;55.816;37.808;2023-04-28T17:24:54;2.00;;;1.90;;
32866;SDS011;19220;55.816;37.808;2023-04-28T17:27:21;3.75;;;1.77;;
32866;SDS011;19220;55.816;37.808;2023-04-28T17:29:47;1.70;;;1.60;;
32866;SDS011;19220;55.816;37.808;2023-04-28T17:32:13;2.13;;;1.90;;
32866;SDS011;19220;55.816;37.808;2023-04-28T17:34:38;1.70;;;1.60;;
32866;SDS011;19220;55.816;37.808;2023-04-28T17:37:05;1.50;;;1.40;;
32866;SDS011;19220;55.816;37.808;2023-04-28T17:39:31;1.67;;;1.58;;
32866;SDS011;19220;55.816;37.808;2023-04-28T17:41:56;1.73;;;1.63;;
32866;SDS011;19220;55.816;37.808;2023-04-28T17:44:22;1.63;;;1.52;;
32866;SDS011;19220;55.816;37.808;2023-04-28T17:46:48;1.55;;;1.45;;
32866;SDS011;19220;55.816;37.808;2023-04-28T17:49:13;1.30;;;1.20;;
32866;SDS011;19220;55.816;37.808;2023-04-28T17:51:39;1.40;;;1.30;;
32866;SDS011;19220;55.816;37.808;2023-04-28T17:54:05;1.40;;;1.30;;
32866;SDS011;19220;55.816;37.808;2023-04-28T17:56:37;1.70;;;1.40;;
32866;SDS011;19220;55.816;37.808;2023-04-28T17:59:02;1.15;;;1.10;;
32866;SDS011;19220;55.816;37.808;2023-04-28T18:01:29;1.52;;;1.30;;
32866;SDS011;19220;55.816;37.808;2023-04-28T18:03:55;1.50;;;1.40;;
32866;SDS011;19220;55.816;37.808;2023-04-28T18:06:22;1.20;;;1.10;;
32866;SDS011;19220;55.816;37.808;2023-04-28T18:08:48;1.30;;;1.20;;
32866;SDS011;19220;55.816;37.808;2023-04-28T18:11:14;1.63;;;1.52;;
32866;SDS011;19220;55.816;37.808;2023-04-28T18:13:40;1.73;;;1.63;;
32866;SDS011;19220;55.816;37.808;2023-04-28T18:16:06;2.80;;;1.38;;
32866;SDS011;19220;55.816;37.808;2023-04-28T18:18:35;1.65;;;1.40;;
32866;SDS011;19220;55.816;37.808;2023-04-28T18:21:01;2.05;;;1.40;;
32866;SDS011;19220;55.816;37.808;2023-04-28T18:23:27;1.60;;;1.50;;
32866;SDS011;19220;55.816;37.808;2023-04-28T18:25:54;3.08;;;1.83;;
32866;SDS011;19220;55.816;37.808;2023-04-28T18:28:20;1.40;;;1.30;;
32866;SDS011;19220;55.816;37.808;2023-04-28T18:30:48;2.47;;;1.70;;
32866;SDS011;19220;55.816;37.808;2023-04-28T18:33:14;2.10;;;1.90;;
32866;SDS011;19220;55.816;37.808;2023-04-28T18:35:39;2.53;;;2.33;;
32866;SDS011;19220;55.816;37.808;2023-04-28T18:38:05;1.80;;;1.70;;
32866;SDS011;19220;55.816;37.808;2023-04-28T18:40:31;2.80;;;2.60;;
32866;SDS011;19220;55.816;37.808;2023-04-28T18:42:57;3.85;;;2.63;;
32866;SDS011;19220;55.816;37.808;2023-04-28T18:45:27;3.15;;;2.70;;
32866;SDS011;19220;55.816;37.808;2023-04-28T18:47:53;3.00;;;2.80;;
32866;SDS011;19220;55.816;37.808;2023-04-28T18:50:18;3.20;;;2.90;;
32866;SDS011;19220;55.816;37.808;2023-04-28T18:52:44;2.88;;;2.67;;
32866;SDS011;19220;55.816;37.808;2023-04-28T18:55:10;3.97;;;2.70;;
32866;SDS011;19220;55.816;37.808;2023-04-28T18:57:36;2.70;;;2.50;;
32866;SDS011;19220;55.816;37.808;2023-04-28T19:00:03;4.57;;;2.47;;
32866;SDS011;19220;55.816;37.808;2023-04-28T19:02:30;2.70;;;2.50;;
32866;SDS011;19220;55.816;37.808;2023-04-28T19:04:57;2.40;;;2.20;;
32866;SDS011;19220;55.816;37.808;2023-04-28T19:07:23;2.40;;;2.10;;
32866;SDS011;19220;55.816;37.808;2023-04-28T19:09:48;2.10;;;2.00;;
32866;SDS011;19220;55.816;37.808;2023-04-28T19:12:15;4.15;;;2.08;;
32866;SDS011;19220;55.816;37.808;2023-04-28T19:14:40;2.28;;;2.13;;
32866;SDS011;19220;55.816;37.808;2023-04-28T19:17:06;5.53;;;2.42;;
32866;SDS011;19220;55.816;37.808;2023-04-28T19:19:32;1.90;;;1.80;;
32866;SDS011;19220;55.816;37.808;2023-04-28T19:21:57;2.53;;;2.33;;
32866;SDS011;19220;55.816;37.808;2023-04-28T19:24:23;2.25;;;2.05;;